Time;durP1;ratioP1;P1;durP2;ratioP2;P2;SDS_P1;SDS_P2;PMS_P1;PMS_P2;Temp;Humidity;BMP_temperature;BMP_pressure;BME280_temperature;BME280_humidity;BME280_pressure;Samples;Min_cycle;Max_cycle;Signal;HPM_P1;HPM_P2
2021/10/28 00:17:44;;;;;;;6.85;3.00;;;;;;;9.18;57.81;101676.16;7966976;28;20371;-66
2021/10/28 03:04:45;;;;;;;5.35;3.67;;;;;;;8.21;58.44;101570.66;7970380;28;20037;-67
2021/10/28 03:08:36;;;;;;;5.40;3.83;;;;;;;8.23;58.39;101565.38;7974764;28;20116;-67
2021/10/28 03:12:27;;;;;;;6.82;4.68;;;;;;;8.23;58.40;101563.59;7974623;28;20037;-67
2021/10/28 03:16:29;;;;;;;7.82;4.75;;;;;;;8.23;58.43;101562.75;7974472;28;20041;-67
2021/10/28 03:28:41;;;;;;;12.65;5.70;;;;;;;8.19;58.51;101556.81;7974447;28;20401;-66
2021/10/28 03:32:31;;;;;;;9.25;5.55;;;;;;;8.20;58.82;101542.81;7974182;28;20044;-66
2021/10/28 03:36:39;;;;;;;8.93;4.93;;;;;;;8.22;58.56;101535.72;7973673;28;20037;-67
2021/10/28 03:45:01;;;;;;;10.20;5.43;;;;;;;8.23;58.63;101533.97;7973515;28;20034;-66
2021/10/28 04:01:07;;;;;;;9.75;6.40;;;;;;;8.18;58.65;101518.47;7980126;28;20038;-67
2021/10/28 04:05:22;;;;;;;12.95;5.30;;;;;;;8.20;58.96;101523.63;7978956;28;20029;-66
2021/10/28 04:30:08;;;;;;;10.98;5.80;;;;;;;8.16;59.31;101504.59;7979298;28;20049;-67
2021/10/28 04:34:01;;;;;;;10.65;6.30;;;;;;;8.18;59.28;101504.53;7979029;28;20033;-66
2021/10/28 04:37:52;;;;;;;9.25;5.47;;;;;;;8.18;59.18;101496.66;7976004;28;20090;-66
2021/10/28 04:41:44;;;;;;;15.55;5.43;;;;;;;8.20;59.41;101495.69;7978807;28;20033;-66
2021/10/28 04:45:34;;;;;;;7.72;4.95;;;;;;;8.21;59.32;101502.59;7978423;28;20064;-66
2021/10/28 04:49:25;;;;;;;15.48;5.97;;;;;;;8.23;59.33;101495.53;7977598;28;20033;-67
2021/10/28 04:53:15;;;;;;;8.02;5.07;;;;;;;8.24;59.47;101502.47;7971036;28;20040;-66
2021/10/28 04:57:06;;;;;;;6.75;4.82;;;;;;;8.23;59.36;101485.06;7978240;28;20048;-66
2021/10/28 05:00:57;;;;;;;8.75;5.32;;;;;;;8.24;59.67;101489.41;7978381;28;21087;-65
2021/10/28 05:04:48;;;;;;;9.25;5.95;;;;;;;8.24;59.65;101484.16;7976713;28;20017;-66
2021/10/28 05:08:39;;;;;;;8.80;5.47;;;;;;;8.27;59.96;101484.00;7977868;28;20033;-66
2021/10/28 05:12:29;;;;;;;13.98;6.20;;;;;;;8.29;59.77;101483.94;7976481;28;20044;-66
2021/10/28 05:16:20;;;;;;;13.98;6.78;;;;;;;8.28;60.07;101485.72;7977377;28;20044;-66
2021/10/28 05:20:11;;;;;;;17.40;6.75;;;;;;;8.26;60.13;101484.94;7977483;28;20121;-66
2021/10/28 05:24:02;;;;;;;13.80;7.03;;;;;;;8.28;60.07;101487.47;7977801;28;20026;-66
2021/10/28 05:27:52;;;;;;;10.98;7.35;;;;;;;8.33;60.25;101493.34;7977242;28;20502;-66
2021/10/28 05:31:43;;;;;;;10.82;6.60;;;;;;;8.34;60.07;101490.66;7977286;28;20033;-66
2021/10/28 05:35:34;;;;;;;12.80;6.50;;;;;;;8.33;60.14;101464.56;7976892;28;20033;-66
2021/10/28 05:39:24;;;;;;;9.32;6.05;;;;;;;8.37;60.16;101466.13;7971419;28;20544;-65
2021/10/28 05:43:15;;;;;;;10.35;6.40;;;;;;;8.39;60.20;101465.09;7976662;28;20040;-65
2021/10/28 05:47:05;;;;;;;11.32;6.85;;;;;;;8.41;60.31;101467.66;7977222;28;20048;-64
2021/10/28 05:50:57;;;;;;;11.77;7.70;;;;;;;8.34;60.21;101440.06;7977582;28;20037;-66
2021/10/28 05:54:47;;;;;;;12.77;6.68;;;;;;;8.43;60.46;101449.25;7976121;28;20140;-66
2021/10/28 05:58:38;;;;;;;12.85;7.05;;;;;;;8.43;60.29;101444.00;7969018;28;20029;-66
2021/10/28 06:02:29;;;;;;;9.32;6.38;;;;;;;8.42;60.28;101440.53;7975591;28;20452;-66
2021/10/28 06:06:19;;;;;;;12.40;7.25;;;;;;;8.45;60.56;101439.56;7975453;28;20037;-66
2021/10/28 06:10:12;;;;;;;12.05;7.55;;;;;;;8.45;60.51;101440.41;7975255;28;20094;-66
2021/10/28 06:14:03;;;;;;;10.90;7.05;;;;;;;8.47;60.17;101442.94;7976312;28;20029;-66
2021/10/28 06:17:59;;;;;;;14.50;8.10;;;;;;;8.50;60.48;101443.63;7972906;28;20045;-66
2021/10/28 06:21:50;;;;;;;13.95;7.97;;;;;;;8.51;60.58;101437.47;7974576;28;20041;-66
2021/10/28 06:25:40;;;;;;;13.43;8.63;;;;;;;8.54;60.41;101433.88;7973179;28;20037;-66
2021/10/28 06:29:31;;;;;;;13.60;8.43;;;;;;;8.56;60.46;101430.25;7973690;28;20513;-66
2021/10/28 06:33:25;;;;;;;15.05;8.88;;;;;;;8.58;60.62;101422.34;7974821;28;20453;-66
2021/10/28 06:37:16;;;;;;;18.30;8.57;;;;;;;8.58;60.64;101433.63;7973277;28;20037;-66
2021/10/28 06:41:07;;;;;;;14.43;8.07;;;;;;;8.58;60.54;101438.06;7973675;28;20072;-66
2021/10/28 06:44:57;;;;;;;12.38;7.03;;;;;;;8.56;60.69;101435.50;7973375;28;20029;-66
2021/10/28 06:48:48;;;;;;;17.33;8.52;;;;;;;8.56;60.59;101430.25;7974989;28;20037;-66
2021/10/28 07:05:06;;;;;;;12.60;7.43;;;;;;;8.60;60.76;101441.44;7975318;28;20083;-66
2021/10/28 07:09:06;;;;;;;13.05;8.07;;;;;;;8.60;60.72;101444.03;7974025;28;20034;-66
2021/10/28 07:13:02;;;;;;;15.98;8.43;;;;;;;8.61;60.92;101435.28;7963815;28;20025;-66
2021/10/28 07:18:03;;;;;;;15.00;7.72;;;;;;;8.63;61.17;101436.03;7974976;28;20102;-66
2021/10/28 07:25:34;;;;;;;13.35;7.63;;;;;;;8.61;60.83;101424.78;7974482;28;20032;-66
2021/10/28 08:18:50;;;;;;;20.05;8.95;;;;;;;9.05;61.40;101398.97;7974501;28;20033;-66
2021/10/28 08:22:45;;;;;;;14.63;9.18;;;;;;;9.15;61.26;101402.84;7974003;28;20025;-64
2021/10/28 08:30:46;;;;;;;11.40;7.72;;;;;;;9.41;61.51;101394.47;7974128;28;20601;-65
2021/10/28 08:34:37;;;;;;;13.52;8.10;;;;;;;9.56;61.43;101398.91;7972618;28;20045;-65
2021/10/28 08:38:28;;;;;;;14.27;9.25;;;;;;;9.72;61.29;101397.16;7971774;28;20044;-65
2021/10/28 08:42:21;;;;;;;12.95;7.45;;;;;;;9.92;61.28;101403.09;7978920;28;20030;-66
2021/10/28 08:46:13;;;;;;;12.50;7.70;;;;;;;10.08;61.11;101391.66;7978897;28;20135;-65
2021/10/28 08:50:08;;;;;;;12.13;7.60;;;;;;;10.25;61.21;101401.22;7978879;28;20030;-65
2021/10/28 08:54:43;;;;;;;12.07;7.97;;;;;;;10.39;61.20;101395.19;7978882;28;20057;-65
2021/10/28 09:28:13;;;;;;;9.98;6.00;;;;;;;11.14;60.91;101358.34;7961395;28;20025;-65
2021/10/28 09:53:22;;;;;;;9.93;5.28;;;;;;;11.08;60.90;101338.53;7969463;28;20037;-65
2021/10/28 10:01:46;;;;;;;6.85;4.85;;;;;;;11.09;61.02;101332.34;7971596;28;20120;-67
2021/10/28 10:05:38;;;;;;;12.70;5.57;;;;;;;11.08;61.23;101328.00;7976794;28;20029;-66
2021/10/28 10:09:32;;;;;;;11.48;6.10;;;;;;;11.11;60.97;101324.31;7976865;28;20036;-66
2021/10/28 10:13:27;;;;;;;9.32;5.43;;;;;;;11.13;61.00;101325.94;7976464;28;20095;-66
2021/10/28 10:17:18;;;;;;;9.13;5.57;;;;;;;11.15;61.07;101312.69;7976155;28;20041;-66
2021/10/28 10:21:22;;;;;;;9.00;5.00;;;;;;;11.16;61.15;101309.13;7976498;28;20033;-66
2021/10/28 10:25:41;;;;;;;9.90;5.65;;;;;;;11.16;60.92;101303.88;7976269;28;20033;-66
2021/10/28 10:30:25;;;;;;;9.40;5.45;;;;;;;11.20;61.05;101304.50;7976737;28;20482;-66
2021/10/28 11:04:17;;;;;;;20.80;5.30;;;;;;;11.33;60.67;101266.00;7974095;28;20046;-66
2021/10/28 12:01:46;;;;;;;5.78;3.85;;;;;;;11.90;60.19;101185.94;7974666;28;20490;-66
2021/10/28 13:28:12;;;;;;;5.78;3.35;;;;;;;12.63;59.21;101098.44;7979345;28;20033;-67
2021/10/28 13:50:18;;;;;;;6.55;2.65;;;;;;;12.76;58.76;101043.88;7976745;28;20505;-66
2021/10/28 15:33:05;;;;;;;6.85;4.55;;;;;;;12.71;57.78;100975.69;7973637;28;20041;-66
2021/10/28 15:36:49;;;;;;;5.38;3.65;;;;;;;12.66;58.03;100964.63;7975172;28;20432;-65
2021/10/28 15:41:37;;;;;;;7.35;4.05;;;;;;;12.67;57.89;100981.28;7979551;28;20069;-65
2021/10/28 15:57:14;;;;;;;6.50;4.43;;;;;;;12.53;57.56;100962.03;7980815;28;20533;-66
2021/10/28 16:22:09;;;;;;;7.00;4.85;;;;;;;12.27;57.43;100968.31;7979026;28;20044;-65
2021/10/28 16:26:02;;;;;;;7.50;4.10;;;;;;;12.25;57.49;100969.38;7978294;28;20022;-66
2021/10/28 16:29:53;;;;;;;6.50;4.57;;;;;;;12.20;57.40;100974.13;7977049;28;20670;-66
2021/10/28 16:33:44;;;;;;;6.40;4.18;;;;;;;12.17;57.64;100969.94;7974038;28;20037;-65
2021/10/28 16:37:35;;;;;;;7.70;5.07;;;;;;;12.13;57.50;100963.22;7975979;28;20498;-66
2021/10/28 16:41:26;;;;;;;8.13;4.70;;;;;;;12.10;57.46;100965.22;7976847;28;20037;-65
2021/10/28 16:45:17;;;;;;;6.95;4.68;;;;;;;12.04;57.43;100972.59;7993209;28;20071;-66
2021/10/28 16:49:09;;;;;;;7.57;4.70;;;;;;;11.99;57.30;100964.19;7979347;28;20087;-67
2021/10/28 16:52:59;;;;;;;6.25;4.63;;;;;;;11.92;57.34;100965.56;7978450;28;20045;-66
2021/10/28 16:56:50;;;;;;;7.40;4.70;;;;;;;11.89;57.58;100963.16;7976852;28;20033;-67
2021/10/28 17:00:41;;;;;;;12.73;4.72;;;;;;;11.81;57.38;100968.09;7977159;28;20413;-70
2021/10/28 17:04:31;;;;;;;9.40;4.72;;;;;;;11.77;57.37;100966.63;7975859;28;20045;-67
2021/10/28 17:08:22;;;;;;;9.40;5.47;;;;;;;11.72;57.46;100955.59;7978031;28;20079;-71
2021/10/28 17:12:12;;;;;;;8.52;5.25;;;;;;;11.71;57.60;100966.22;7979057;28;20120;-68
2021/10/28 17:16:03;;;;;;;13.23;6.20;;;;;;;11.65;57.36;100964.84;7976014;28;20095;-69
2021/10/28 17:19:54;;;;;;;9.63;6.10;;;;;;;11.62;57.36;100967.69;7960372;28;20048;-68
2021/10/28 17:23:49;;;;;;;13.52;8.30;;;;;;;11.56;57.27;100982.06;7978058;28;20041;-68
2021/10/28 17:27:40;;;;;;;8.73;6.05;;;;;;;11.52;57.43;100985.03;7975232;28;20029;-67
2021/10/28 17:31:33;;;;;;;8.48;5.53;;;;;;;11.47;57.24;100984.50;7977834;28;20102;-67
2021/10/28 17:35:24;;;;;;;8.20;5.70;;;;;;;11.43;57.39;100983.03;7977011;28;20095;-67
2021/10/28 17:39:14;;;;;;;9.63;6.40;;;;;;;11.34;57.30;100984.47;7976244;28;20042;-67
2021/10/28 17:43:10;;;;;;;11.00;6.50;;;;;;;11.33;57.46;100984.56;7976916;28;20126;-69
2021/10/28 17:47:00;;;;;;;7.88;5.18;;;;;;;11.26;57.21;100978.91;7974401;28;20042;-68
2021/10/28 17:50:52;;;;;;;8.75;5.88;;;;;;;11.18;57.28;100965.41;7976974;28;20108;-70
2021/10/28 17:54:42;;;;;;;11.63;6.70;;;;;;;11.17;57.20;100977.72;7976359;28;20064;-68
2021/10/28 17:58:33;;;;;;;8.60;6.40;;;;;;;11.09;57.13;100972.13;7977301;28;20040;-68
2021/10/28 18:02:24;;;;;;;12.00;7.20;;;;;;;11.02;57.17;100973.50;7976676;28;20040;-68
2021/10/28 18:06:14;;;;;;;10.73;6.20;;;;;;;10.97;57.38;100978.22;7975358;28;20441;-68
2021/10/28 18:10:06;;;;;;;13.73;7.57;;;;;;;10.91;57.17;100975.13;7976720;28;20038;-68
2021/10/28 18:13:58;;;;;;;9.77;6.18;;;;;;;10.87;57.12;100986.78;7969936;28;20486;-68
2021/10/28 18:17:48;;;;;;;13.00;7.05;;;;;;;10.79;57.19;100979.41;7975718;28;20107;-70
2021/10/28 18:21:42;;;;;;;10.52;6.93;;;;;;;10.75;57.16;100969.19;7975141;28;20375;-69
2021/10/28 18:25:35;;;;;;;12.07;6.75;;;;;;;10.69;57.26;100973.06;7976049;28;20049;-69
2021/10/28 18:29:25;;;;;;;11.20;6.63;;;;;;;10.64;57.19;100976.00;7973473;28;20033;-69
2021/10/28 18:33:16;;;;;;;9.75;6.53;;;;;;;10.63;56.66;100976.09;7975921;28;20115;-68
2021/10/28 18:37:06;;;;;;;10.23;7.03;;;;;;;10.56;57.32;100978.28;7974933;28;20036;-70
2021/10/28 18:40:57;;;;;;;9.77;6.93;;;;;;;10.52;57.32;100961.03;7975640;28;20040;-69
2021/10/28 18:44:48;;;;;;;10.85;6.72;;;;;;;10.45;57.24;100969.34;7975230;28;20043;-66
2021/10/28 18:48:39;;;;;;;10.77;6.88;;;;;;;10.41;57.24;100958.19;7974811;28;20029;-68
2021/10/28 18:52:30;;;;;;;11.38;6.38;;;;;;;10.37;57.35;100961.09;7973769;28;20075;-68
2021/10/28 18:56:21;;;;;;;11.13;6.53;;;;;;;10.34;57.22;100967.41;7974467;28;20037;-72
2021/10/28 19:00:11;;;;;;;10.40;6.65;;;;;;;10.32;57.45;100952.72;7974379;28;20041;-68
2021/10/28 19:04:02;;;;;;;13.40;6.53;;;;;;;10.29;57.23;100945.84;7971288;28;20033;-68
2021/10/28 19:07:53;;;;;;;7.97;5.57;;;;;;;10.22;57.38;100932.28;7974680;28;20021;-69
2021/10/28 19:11:44;;;;;;;12.07;6.28;;;;;;;10.22;57.37;100928.81;7973801;28;20040;-69
2021/10/28 19:15:35;;;;;;;9.90;6.40;;;;;;;10.19;57.19;100921.13;7974171;28;20029;-69
2021/10/28 19:19:26;;;;;;;9.60;6.90;;;;;;;10.11;57.27;100923.41;7973598;28;20029;-68
2021/10/28 19:23:16;;;;;;;9.68;6.50;;;;;;;10.05;57.32;100922.00;7973090;28;20022;-67
2021/10/28 19:27:08;;;;;;;10.80;6.13;;;;;;;10.00;57.38;100916.19;7974855;28;20049;-68
2021/10/28 19:31:02;;;;;;;9.65;6.13;;;;;;;9.98;57.37;100915.47;7974878;28;20026;-68
2021/10/28 19:34:54;;;;;;;9.65;6.70;;;;;;;9.92;57.22;100923.69;7974130;28;20052;-68
2021/10/28 19:46:39;;;;;;;10.98;7.40;;;;;;;9.82;57.17;100900.78;7974086;28;20028;-69
2021/10/28 19:50:30;;;;;;;10.63;6.75;;;;;;;9.80;57.79;100913.97;7973954;28;20037;-68
2021/10/28 19:54:20;;;;;;;9.32;6.32;;;;;;;9.71;57.36;100901.41;7973517;28;20393;-71
2021/10/28 19:58:17;;;;;;;10.00;6.68;;;;;;;9.65;57.40;100897.41;7972618;28;20529;-67
2021/10/28 20:02:14;;;;;;;10.10;6.47;;;;;;;9.65;57.38;100901.81;7954927;28;20646;-71
2021/10/28 20:22:41;;;;;;;11.60;7.35;;;;;;;9.44;57.66;100883.00;7973104;28;20048;-69
2021/10/28 20:26:31;;;;;;;10.77;6.45;;;;;;;9.39;57.48;100881.56;7973928;28;20577;-70
2021/10/28 20:30:33;;;;;;;10.48;6.55;;;;;;;9.40;57.69;100880.66;7974007;28;20037;-69
2021/10/28 20:34:34;;;;;;;10.45;6.78;;;;;;;9.35;57.58;100883.53;7971036;28;20021;-70
2021/10/28 20:38:25;;;;;;;10.20;6.85;;;;;;;9.28;57.74;100888.28;7954217;28;20041;-69
2021/10/28 20:42:18;;;;;;;10.55;7.32;;;;;;;9.26;57.71;100882.28;7979463;28;20056;-69
2021/10/28 20:46:08;;;;;;;10.15;6.57;;;;;;;9.23;58.09;100886.88;7974009;28;20034;-67
2021/10/28 20:49:59;;;;;;;11.93;8.10;;;;;;;9.18;57.65;100881.91;7968661;28;20029;-67
2021/10/28 20:53:50;;;;;;;12.48;7.47;;;;;;;9.16;57.84;100875.09;7978580;28;20052;-68
2021/10/28 20:57:41;;;;;;;13.63;7.40;;;;;;;9.09;57.80;100866.72;7978081;28;20045;-68
2021/10/28 21:01:31;;;;;;;10.07;6.90;;;;;;;9.06;57.76;100874.78;7978973;28;20060;-68
2021/10/28 21:05:22;;;;;;;11.45;7.18;;;;;;;9.06;57.69;100866.91;7977346;28;20029;-68
2021/10/28 21:09:13;;;;;;;13.68;7.28;;;;;;;9.04;57.96;100878.44;7976788;28;20409;-67
2021/10/28 21:13:03;;;;;;;12.15;7.28;;;;;;;9.00;57.77;100869.88;7979319;28;20681;-68
2021/10/28 21:16:54;;;;;;;10.98;6.82;;;;;;;8.98;57.75;100869.16;7976555;28;20475;-69
2021/10/28 21:20:45;;;;;;;12.48;7.13;;;;;;;8.96;57.85;100860.53;7978243;28;20033;-67
2021/10/28 21:24:38;;;;;;;10.77;6.80;;;;;;;8.95;57.80;100837.91;7976902;28;20552;-67
2021/10/28 21:28:30;;;;;;;9.60;6.43;;;;;;;8.93;57.86;100844.16;7970188;28;20056;-68
2021/10/28 21:32:21;;;;;;;13.02;7.45;;;;;;;8.90;57.74;100847.81;7976674;28;20053;-67
2021/10/28 21:36:11;;;;;;;11.20;7.38;;;;;;;8.88;57.84;100854.91;7978156;28;20036;-67
2021/10/28 21:40:03;;;;;;;12.02;6.75;;;;;;;8.81;57.90;100843.94;7976112;28;20033;-68
2021/10/28 21:43:54;;;;;;;17.42;6.88;;;;;;;8.76;57.38;100832.06;7977005;28;20048;-67
2021/10/28 21:47:47;;;;;;;12.98;6.72;;;;;;;8.77;57.79;100839.81;7976692;28;20031;-69
2021/10/28 21:51:38;;;;;;;10.48;6.43;;;;;;;8.73;57.82;100824.38;7976746;28;20445;-67
2021/10/28 22:28:01;;;;;;;10.68;7.13;;;;;;;8.43;58.38;100803.44;7975737;28;20025;-68
2021/10/28 22:31:51;;;;;;;11.23;7.68;;;;;;;8.40;58.36;100798.41;7974980;28;20037;-67
2021/10/28 22:36:01;;;;;;;12.95;7.45;;;;;;;8.36;58.24;100794.28;7975591;28;20048;-68
2021/10/28 22:40:06;;;;;;;12.82;6.70;;;;;;;8.34;58.42;100799.59;7975556;28;20037;-68
2021/10/28 22:43:57;;;;;;;11.80;6.50;;;;;;;8.33;58.24;100808.38;7975185;28;20029;-68
2021/10/28 22:47:47;;;;;;;12.60;6.93;;;;;;;8.28;58.22;100799.97;7973848;28;20043;-68
2021/10/28 22:51:39;;;;;;;12.98;7.05;;;;;;;8.28;58.44;100797.34;7975522;28;20041;-67
2021/10/28 22:55:48;;;;;;;10.23;6.75;;;;;;;8.30;58.50;100800.69;7974968;28;20044;-66
2021/10/28 22:59:39;;;;;;;9.32;5.82;;;;;;;8.27;58.22;100790.41;7968232;28;20037;-66
2021/10/28 23:23:34;;;;;;;10.68;6.45;;;;;;;8.17;58.29;100786.63;7973386;28;20040;-68
2021/10/28 23:27:24;;;;;;;12.10;6.75;;;;;;;8.16;58.50;100777.09;7973068;28;20029;-67
2021/10/28 23:31:15;;;;;;;10.00;6.25;;;;;;;8.16;58.43;100781.50;7974444;28;20163;-68
2021/10/28 23:35:06;;;;;;;10.05;6.22;;;;;;;8.15;58.76;100787.66;7971907;28;20033;-68
2021/10/28 23:38:56;;;;;;;10.38;6.75;;;;;;;8.13;58.58;100782.50;7973501;28;20646;-68
2021/10/28 23:42:47;;;;;;;9.40;6.78;;;;;;;8.13;58.75;100779.03;7974091;28;20486;-66
2021/10/28 23:46:38;;;;;;;11.43;6.60;;;;;;;8.11;58.49;100768.69;7974305;28;20033;-68
2021/10/28 23:50:29;;;;;;;11.45;7.00;;;;;;;8.06;58.85;100767.22;7974486;28;20041;-68
2021/10/28 23:54:20;;;;;;;10.73;6.60;;;;;;;8.10;58.87;100771.34;7973969;28;20052;-69
2021/10/28 23:58:11;;;;;;;9.95;6.28;;;;;;;8.06;58.73;100757.59;7973913;28;20039;-68
